PASX

Details ICAO PASX
Name SOLDOTNA
Region USA (Alaska)
Timezone America/Anchorage (UTC-9.0)
Plans Departing 5
Arriving 7
Stats Elevation 113 ft / 34 m (AMSL)
Location 60.474958° -151.038239°
Runways 1
Magnetic Variation 15.759° E
Sunrise 2017-12-15 19:07:49 UTC / 2017-12-15 10:07:49 Local
Sunset 2017-12-16 00:53:58 UTC / 2017-12-15 15:53:58 Local
Advertisement - Login to hide

Runways

ID Width Length Bearing (true) Bearing (mag) Surface Threshold Offset Overrun Length
07 132 ft / 40 m 4,983 ft / 1,519 m 90.01° 74.25° Asphalt 0 ft / 0 m 0 ft / 0 m
25 132 ft / 40 m 4,983 ft / 1,519 m 270.03° 254.27° Asphalt 0 ft / 0 m 0 ft / 0 m

Map

Weather


0- 5 10 15 20 25 30 35+ Temperature / ° C

Clouds and Precipitation
Forecast for 2017-12-16 12:00 UTC. Updated 19 minutes ago

Ground ~20,000 ft ~40,000 ft Winds

METAR

PASX 160856Z AUTO 16008KT 10SM FEW060 OVC110 03/01 A2914 RMK AO2 SLP876 60000 T00280011 400281072 53013

TAF

Not found

Frequencies

Recorded 135.45 MHz AWOS 3
Unicom 122.50 MHz CTAF
Warning: Do not use this data for real-world aviation or navigation. No guarantee of current accuracy is given.